createdAt,value
2023-06-21T00:01:10.290Z,73.03
2023-06-21T00:03:40.030Z,72.89
2023-06-21T00:06:07.873Z,72.63
2023-06-21T00:08:35.699Z,72.31
2023-06-21T00:11:04.766Z,72.10
2023-06-21T00:13:32.608Z,72.26
2023-06-21T00:16:00.452Z,72.31
2023-06-21T00:18:28.344Z,72.21
2023-06-21T00:21:00.897Z,72.21
2023-06-21T00:26:51.148Z,72.30
2023-06-21T00:29:19.088Z,72.38
2023-06-21T00:31:47.355Z,72.78
2023-06-21T00:34:15.137Z,72.90
2023-06-21T00:36:45.036Z,73.00
2023-06-21T00:39:13.109Z,72.93
2023-06-21T00:41:41.120Z,73.11
2023-06-21T00:44:10.118Z,73.31
2023-06-21T00:46:39.230Z,73.35
2023-06-21T00:49:07.049Z,73.32
2023-06-21T00:51:37.901Z,73.43
2023-06-21T00:54:07.536Z,73.55
2023-06-21T00:56:35.297Z,73.72
2023-06-21T01:01:20.824Z,73.99
2023-06-21T01:03:47.251Z,74.01
2023-06-21T01:06:33.235Z,74.30
2023-06-21T01:09:36.779Z,74.45
2023-06-21T01:12:37.930Z,74.35
2023-06-21T01:15:09.577Z,74.36
2023-06-21T01:17:40.869Z,74.42
2023-06-21T01:20:14.622Z,74.29
2023-06-21T01:23:15.054Z,74.34
2023-06-21T01:26:10.590Z,74.60
2023-06-21T01:29:08.203Z,74.56
2023-06-21T01:31:36.152Z,74.71
2023-06-21T01:34:04.764Z,74.83
2023-06-21T01:36:32.457Z,74.76
2023-06-21T01:38:58.963Z,74.72
2023-06-21T01:41:30.647Z,74.79
2023-06-21T01:43:57.728Z,74.71
2023-06-21T01:46:26.553Z,74.90
2023-06-21T01:48:54.768Z,75.13
2023-06-21T01:51:22.601Z,75.11
2023-06-21T01:53:49.631Z,75.18
2023-06-21T01:56:18.208Z,75.59
2023-06-21T01:58:47.105Z,75.97
2023-06-21T02:01:14.723Z,75.98
2023-06-21T02:03:44.865Z,76.12
2023-06-21T02:06:13.236Z,76.25
2023-06-21T02:08:40.876Z,76.12
2023-06-21T02:11:07.712Z,76.02
2023-06-21T02:13:34.526Z,76.00
2023-06-21T02:16:01.060Z,75.98
2023-06-21T02:18:27.505Z,76.06
2023-06-21T02:20:54.332Z,76.12
2023-06-21T02:23:20.868Z,76.30
2023-06-21T02:25:47.308Z,76.75
2023-06-21T02:28:13.899Z,77.09
2023-06-21T02:30:40.307Z,77.19
2023-06-21T02:33:07.664Z,77.06
2023-06-21T02:35:34.861Z,77.06
2023-06-21T02:38:02.637Z,77.16
2023-06-21T02:40:29.425Z,77.12
2023-06-21T02:42:56.077Z,77.13
2023-06-21T02:45:23.214Z,77.15
2023-06-21T02:47:49.584Z,77.24
2023-06-21T02:50:19.006Z,77.34
2023-06-21T02:52:45.388Z,77.51
2023-06-21T02:55:11.823Z,77.66
2023-06-21T02:57:41.439Z,77.55
2023-06-21T03:00:23.262Z,77.46
2023-06-21T03:02:50.779Z,77.41
2023-06-21T03:05:17.339Z,77.63
2023-06-21T03:07:44.453Z,77.52
2023-06-21T03:10:12.922Z,77.43
2023-06-21T03:12:41.443Z,77.49
2023-06-21T03:15:09.199Z,77.48
2023-06-21T03:17:36.276Z,77.31
2023-06-21T03:20:13.218Z,77.17
2023-06-21T03:22:42.142Z,77.12
2023-06-21T03:25:14.671Z,76.88
2023-06-21T03:27:41.850Z,76.89
2023-06-21T03:30:13.910Z,76.68
2023-06-21T03:32:49.443Z,76.49
2023-06-21T03:35:18.127Z,76.31
2023-06-21T03:37:46.760Z,76.14
2023-06-21T03:40:14.507Z,75.99
2023-06-21T03:42:46.088Z,75.85
2023-06-21T03:45:13.194Z,75.74
2023-06-21T03:47:41.021Z,75.92
2023-06-21T03:50:08.835Z,75.54
2023-06-21T03:52:35.404Z,75.32
2023-06-21T03:55:02.641Z,74.89
2023-06-21T03:57:29.200Z,75.45
2023-06-21T03:59:55.687Z,75.32
2023-06-21T04:02:22.176Z,75.21
2023-06-21T04:04:49.299Z,74.94
2023-06-21T04:07:21.591Z,74.46
2023-06-21T04:09:48.929Z,74.17
2023-06-21T04:12:15.628Z,73.83
2023-06-21T04:14:42.126Z,73.78
2023-06-21T04:17:08.614Z,73.67
2023-06-21T04:19:35.086Z,73.18
2023-06-21T04:22:01.555Z,72.92
2023-06-21T04:24:28.038Z,73.02
2023-06-21T04:26:56.887Z,73.05
2023-06-21T04:29:27.060Z,72.82
2023-06-21T04:31:53.685Z,72.58
2023-06-21T04:34:20.422Z,72.28
2023-06-21T04:36:47.903Z,71.79
2023-06-21T04:39:18.295Z,71.80
2023-06-21T04:41:51.782Z,71.68
2023-06-21T04:44:18.746Z,71.52
2023-06-21T04:46:48.987Z,71.49
2023-06-21T04:49:19.275Z,71.79
2023-06-21T04:51:46.871Z,71.64
2023-06-21T04:54:13.331Z,71.37
2023-06-21T04:56:40.237Z,71.38
2023-06-21T04:59:08.831Z,71.02
2023-06-21T05:01:35.449Z,70.80
2023-06-21T05:04:01.805Z,69.88
2023-06-21T05:06:28.317Z,69.54
2023-06-21T05:08:54.841Z,69.48
2023-06-21T05:11:21.293Z,69.44
2023-06-21T05:13:47.794Z,69.35
2023-06-21T05:16:14.250Z,69.81
2023-06-21T05:18:40.777Z,70.10
2023-06-21T05:21:07.230Z,70.02
2023-06-21T05:23:34.068Z,70.25
2023-06-21T05:26:07.888Z,70.52
2023-06-21T05:28:34.288Z,69.16
2023-06-21T05:31:00.890Z,68.93
2023-06-21T05:33:27.327Z,68.16
2023-06-21T05:35:53.724Z,67.62
2023-06-21T05:38:20.129Z,67.32
2023-06-21T05:40:47.839Z,66.49
2023-06-21T05:43:14.231Z,66.70
2023-06-21T05:45:40.681Z,66.42
2023-06-21T05:48:07.695Z,66.12
2023-06-21T05:50:34.244Z,65.16
2023-06-21T05:53:00.746Z,64.73
2023-06-21T05:55:27.221Z,64.07
2023-06-21T05:57:53.564Z,63.84
2023-06-21T06:00:20.259Z,62.98
2023-06-21T06:02:46.759Z,62.25
2023-06-21T06:05:14.330Z,61.37
2023-06-21T06:07:40.748Z,61.00
2023-06-21T06:10:07.521Z,60.55
2023-06-21T06:12:34.187Z,60.68
2023-06-21T06:15:00.950Z,60.12
2023-06-21T06:17:28.222Z,58.80
2023-06-21T06:19:54.660Z,57.60
2023-06-21T06:22:21.121Z,55.22
2023-06-21T06:27:28.932Z,52.71
2023-06-21T06:29:59.699Z,51.70
2023-06-21T06:32:27.640Z,51.62
2023-06-21T06:34:54.244Z,51.71
2023-06-21T06:37:24.495Z,50.91
2023-06-21T06:39:55.607Z,49.50
2023-06-21T06:42:22.241Z,49.16
2023-06-21T06:44:51.143Z,49.48
2023-06-21T06:47:17.776Z,48.78
2023-06-21T06:49:44.727Z,48.69
2023-06-21T06:52:14.328Z,48.41
2023-06-21T06:54:40.739Z,48.58
2023-06-21T06:57:07.889Z,48.25
2023-06-21T06:59:35.450Z,46.87
2023-06-21T07:02:01.885Z,47.14
2023-06-21T07:04:29.449Z,46.17
2023-06-21T07:06:57.853Z,46.23
2023-06-21T07:09:25.357Z,45.73
2023-06-21T07:11:52.213Z,45.17
2023-06-21T07:14:18.759Z,45.02
2023-06-21T07:16:49.852Z,45.01
2023-06-21T07:19:16.273Z,45.49
2023-06-21T07:21:43.190Z,45.00
2023-06-21T07:24:09.629Z,45.06
2023-06-21T07:26:36.001Z,44.97
2023-06-21T07:29:02.874Z,44.73
2023-06-21T07:31:29.431Z,43.53
2023-06-21T07:33:59.144Z,42.89
2023-06-21T07:36:26.002Z,43.37
2023-06-21T07:38:53.523Z,42.25
2023-06-21T07:41:20.066Z,42.17
2023-06-21T07:43:48.087Z,42.00
2023-06-21T07:46:15.972Z,41.89
2023-06-21T07:48:42.707Z,43.20
2023-06-21T07:51:09.985Z,42.44
2023-06-21T07:53:36.357Z,42.23
2023-06-21T07:56:02.897Z,41.72
2023-06-21T07:58:29.784Z,42.31
2023-06-21T08:00:56.182Z,42.11
2023-06-21T08:03:22.537Z,40.83
2023-06-21T08:05:49.050Z,40.93
2023-06-21T08:08:18.050Z,40.86
2023-06-21T08:10:44.510Z,41.78
2023-06-21T08:13:11.123Z,42.23
2023-06-21T08:15:38.770Z,40.30
2023-06-21T08:18:05.182Z,40.54
2023-06-21T08:20:33.990Z,38.64
2023-06-21T08:23:00.391Z,38.68
2023-06-21T08:25:27.235Z,39.21
2023-06-21T08:27:54.374Z,39.03
2023-06-21T08:30:20.879Z,38.94
2023-06-21T08:32:47.183Z,39.64
2023-06-21T08:35:13.591Z,39.68
2023-06-21T08:37:40.628Z,40.72
2023-06-21T08:40:08.204Z,39.97
2023-06-21T08:42:34.554Z,39.76
2023-06-21T08:45:01.048Z,39.92
2023-06-21T08:47:29.544Z,40.29
2023-06-21T08:49:59.367Z,41.11
2023-06-21T08:52:28.654Z,41.49
2023-06-21T08:55:06.558Z,40.50
2023-06-21T09:00:12.996Z,39.74
2023-06-21T09:03:07.817Z,40.27
2023-06-21T09:05:54.682Z,39.62
2023-06-21T09:08:21.690Z,39.10
2023-06-21T09:10:49.580Z,38.39
2023-06-21T09:13:18.140Z,38.95
2023-06-21T09:15:46.163Z,40.35
2023-06-21T09:18:13.313Z,40.91
2023-06-21T09:20:40.136Z,41.53
2023-06-21T09:23:06.588Z,42.13
2023-06-21T09:25:32.985Z,41.59
2023-06-21T09:27:59.532Z,41.91
2023-06-21T09:32:56.802Z,42.77
2023-06-21T09:35:23.334Z,42.54
2023-06-21T09:37:49.921Z,42.59
2023-06-21T09:40:16.460Z,42.45
2023-06-21T09:42:45.680Z,42.12
2023-06-21T09:45:17.461Z,41.18
2023-06-21T09:47:43.939Z,40.42
2023-06-21T09:50:12.195Z,39.70
2023-06-21T09:52:45.506Z,39.75
2023-06-21T09:55:16.419Z,40.21
2023-06-21T09:57:43.781Z,40.93
2023-06-21T10:00:11.089Z,41.62
2023-06-21T10:02:42.306Z,41.46
2023-06-21T10:05:19.596Z,41.11
2023-06-21T10:07:47.134Z,40.96
2023-06-21T10:10:14.320Z,40.79
2023-06-21T10:12:53.806Z,41.44
2023-06-21T10:15:21.742Z,41.45
2023-06-21T10:17:59.958Z,42.32
2023-06-21T10:20:33.296Z,42.88
2023-06-21T10:23:03.424Z,43.48
2023-06-21T10:25:31.276Z,44.12
2023-06-21T10:28:00.946Z,44.30
2023-06-21T10:30:29.566Z,44.09
2023-06-21T10:33:00.413Z,43.96
2023-06-21T10:35:28.407Z,44.61
2023-06-21T10:38:13.209Z,44.53
2023-06-21T10:40:41.294Z,44.67
2023-06-21T10:43:08.525Z,44.88
2023-06-21T10:45:36.085Z,45.32
2023-06-21T10:48:03.690Z,46.50
2023-06-21T10:50:31.015Z,47.02
2023-06-21T10:52:58.939Z,47.64
2023-06-21T10:55:25.681Z,47.80
2023-06-21T10:57:53.875Z,47.96
2023-06-21T11:00:23.228Z,47.67
2023-06-21T11:02:50.180Z,48.04
2023-06-21T11:05:17.952Z,48.46
2023-06-21T11:08:00.473Z,48.68
2023-06-21T11:10:47.520Z,49.64
2023-06-21T11:13:15.483Z,49.32
2023-06-21T11:15:43.433Z,49.38
2023-06-21T11:18:19.212Z,49.32
2023-06-21T11:20:50.407Z,49.59
2023-06-21T11:23:18.493Z,49.42
2023-06-21T11:26:12.935Z,49.62
2023-06-21T11:28:52.914Z,49.52
2023-06-21T11:31:27.878Z,49.49
2023-06-21T11:34:00.491Z,50.04
2023-06-21T11:36:29.143Z,50.09
2023-06-21T11:39:05.189Z,50.64
2023-06-21T11:41:40.745Z,50.70
2023-06-21T11:44:28.387Z,50.09
2023-06-21T11:47:14.659Z,50.16
2023-06-21T11:49:59.378Z,50.55
2023-06-21T11:52:33.115Z,50.40
2023-06-21T11:55:12.724Z,51.74
2023-06-21T11:57:46.213Z,52.96
2023-06-21T12:00:13.433Z,55.41
2023-06-21T12:02:40.051Z,57.46
2023-06-21T12:05:06.895Z,58.80
2023-06-21T12:07:33.759Z,59.62
2023-06-21T12:10:00.806Z,59.79
2023-06-21T12:12:30.240Z,59.74
2023-06-21T12:14:57.979Z,60.32
2023-06-21T12:17:24.902Z,58.94
2023-06-21T12:19:51.422Z,58.93
2023-06-21T12:22:21.052Z,60.91
2023-06-21T12:24:47.520Z,62.31
2023-06-21T12:27:14.717Z,62.78
2023-06-21T12:29:51.037Z,64.43
2023-06-21T12:32:21.156Z,65.37
2023-06-21T12:34:48.432Z,65.46
2023-06-21T12:37:20.284Z,66.51
2023-06-21T12:39:52.508Z,66.20
2023-06-21T12:42:20.686Z,65.53
2023-06-21T12:44:47.286Z,64.06
2023-06-21T12:47:15.232Z,63.63
2023-06-21T12:49:46.453Z,62.34
2023-06-21T12:52:12.909Z,60.86
2023-06-21T12:54:52.263Z,60.77
2023-06-21T12:57:24.810Z,59.13
2023-06-21T12:59:51.340Z,58.50
2023-06-21T13:02:18.563Z,56.94
2023-06-21T13:04:47.928Z,56.49
2023-06-21T13:07:14.400Z,54.41
2023-06-21T13:09:40.864Z,54.01
2023-06-21T13:12:07.898Z,52.83
2023-06-21T13:14:35.396Z,53.13
2023-06-21T13:17:01.830Z,53.81
2023-06-21T13:19:28.259Z,53.30
2023-06-21T13:21:54.761Z,53.97
2023-06-21T13:24:21.175Z,53.08
2023-06-21T13:26:47.518Z,53.28
2023-06-21T13:29:14.031Z,52.83
2023-06-21T13:31:40.579Z,53.08
2023-06-21T13:34:07.061Z,53.19
2023-06-21T13:36:33.596Z,53.65
2023-06-21T13:39:00.359Z,53.25
2023-06-21T13:41:26.924Z,53.42
2023-06-21T13:43:53.374Z,53.32
2023-06-21T13:46:19.917Z,53.67
2023-06-21T13:48:46.555Z,53.63
2023-06-21T13:51:13.263Z,53.62
2023-06-21T13:53:40.772Z,53.50
2023-06-21T13:56:07.197Z,53.84
2023-06-21T13:58:33.540Z,53.64
2023-06-21T14:01:00.030Z,52.74
2023-06-21T14:03:26.828Z,52.71
2023-06-21T14:05:54.018Z,52.39
2023-06-21T14:08:20.474Z,52.38
2023-06-21T14:10:48.765Z,51.72
2023-06-21T14:13:15.329Z,51.84
2023-06-21T14:15:41.813Z,51.27
2023-06-21T14:18:10.321Z,50.66
2023-06-21T14:20:36.777Z,50.67
2023-06-21T14:23:03.274Z,51.01
2023-06-21T14:25:29.918Z,49.89
2023-06-21T14:27:56.430Z,50.04
2023-06-21T14:30:23.092Z,48.97
2023-06-21T14:32:49.774Z,48.83
2023-06-21T14:35:16.361Z,49.15
2023-06-21T14:37:47.933Z,49.24
2023-06-21T14:40:14.644Z,49.41
2023-06-21T14:42:41.316Z,49.30
2023-06-21T14:45:08.397Z,49.81
2023-06-21T14:47:35.103Z,50.01
2023-06-21T14:50:03.880Z,50.38
2023-06-21T14:52:32.039Z,50.30
2023-06-21T14:54:58.899Z,50.81
2023-06-21T14:57:25.478Z,51.06
2023-06-21T14:59:52.730Z,51.41
2023-06-21T15:02:19.269Z,51.22
2023-06-21T15:04:45.718Z,51.32
2023-06-21T15:07:16.316Z,50.92
2023-06-21T15:09:42.782Z,51.00
2023-06-21T15:12:09.615Z,51.76
2023-06-21T15:14:36.071Z,52.01
2023-06-21T15:17:02.827Z,52.16
2023-06-21T15:19:29.504Z,52.81
2023-06-21T15:21:56.040Z,52.85
2023-06-21T15:24:23.091Z,53.10
2023-06-21T15:26:49.782Z,53.61
2023-06-21T15:29:16.249Z,54.10
2023-06-21T15:31:42.964Z,53.94
2023-06-21T15:34:11.728Z,54.15
2023-06-21T15:36:40.072Z,54.61
2023-06-21T15:39:07.463Z,54.57
2023-06-21T15:41:33.935Z,55.13
2023-06-21T15:44:00.663Z,55.62
2023-06-21T15:46:28.565Z,55.91
2023-06-21T15:48:55.015Z,56.34
2023-06-21T15:51:21.566Z,56.94
2023-06-21T15:53:48.063Z,58.03
2023-06-21T15:56:15.845Z,58.51
2023-06-21T15:58:42.279Z,58.75
2023-06-21T16:01:12.292Z,59.20
2023-06-21T16:03:39.341Z,59.42
2023-06-21T16:06:06.122Z,59.54
2023-06-21T16:08:32.566Z,59.64
2023-06-21T16:10:59.301Z,59.82
2023-06-21T16:13:28.143Z,60.06
2023-06-21T16:15:57.508Z,60.37
2023-06-21T16:18:24.000Z,60.49
2023-06-21T16:20:54.734Z,60.96
2023-06-21T16:23:22.686Z,61.37
2023-06-21T16:25:49.234Z,61.87
2023-06-21T16:28:15.994Z,62.84
2023-06-21T16:30:42.704Z,64.16
2023-06-21T16:33:09.920Z,67.73
2023-06-21T16:35:36.651Z,70.90
2023-06-21T16:38:03.197Z,69.88
2023-06-21T16:40:34.261Z,70.60
2023-06-21T16:43:00.703Z,71.97
2023-06-21T16:45:29.055Z,72.85
2023-06-21T16:47:56.065Z,72.44
2023-06-21T16:50:23.115Z,72.96
2023-06-21T16:52:49.897Z,74.79
2023-06-21T16:55:17.032Z,74.76
2023-06-21T16:57:43.892Z,75.85
2023-06-21T17:00:11.181Z,76.51
2023-06-21T17:02:37.881Z,76.89
2023-06-21T17:05:04.863Z,77.58
2023-06-21T17:07:32.401Z,78.01
2023-06-21T17:09:59.722Z,78.44
2023-06-21T17:12:26.296Z,78.34
2023-06-21T17:14:52.711Z,78.66
2023-06-21T17:17:25.586Z,79.31
2023-06-21T17:19:52.171Z,79.32
2023-06-21T17:22:18.538Z,79.03
2023-06-21T17:27:55.807Z,78.23
2023-06-21T17:30:24.190Z,78.56
2023-06-21T17:33:00.942Z,79.40
2023-06-21T17:35:29.208Z,78.75
2023-06-21T17:37:57.272Z,78.29
2023-06-21T17:40:25.229Z,78.47
2023-06-21T17:42:53.141Z,78.39
2023-06-21T17:45:21.219Z,78.98
2023-06-21T17:47:49.111Z,79.49
2023-06-21T17:50:17.336Z,79.55
2023-06-21T17:52:45.423Z,79.43
2023-06-21T17:55:13.628Z,79.76
2023-06-21T17:57:42.877Z,79.34
2023-06-21T18:00:12.457Z,78.98
2023-06-21T18:02:41.746Z,79.33
2023-06-21T18:05:13.756Z,80.19
2023-06-21T18:07:41.893Z,80.45
2023-06-21T18:10:10.303Z,80.59
2023-06-21T18:12:38.632Z,80.79
2023-06-21T18:15:12.988Z,80.72
2023-06-21T18:17:54.381Z,80.79
2023-06-21T18:20:24.914Z,80.89
2023-06-21T18:22:55.261Z,80.97
2023-06-21T18:25:23.567Z,81.09
2023-06-21T18:27:53.078Z,81.34
2023-06-21T18:30:22.364Z,81.40
2023-06-21T18:32:50.831Z,81.37
2023-06-21T18:35:19.586Z,81.46
2023-06-21T18:37:49.812Z,81.61
2023-06-21T18:40:17.644Z,81.66
2023-06-21T18:42:45.765Z,81.58
2023-06-21T18:45:14.732Z,81.45
2023-06-21T18:47:42.551Z,82.07
2023-06-21T18:50:10.742Z,82.59
2023-06-21T18:52:38.705Z,82.89
2023-06-21T18:55:08.024Z,82.92
2023-06-21T18:57:35.885Z,82.75
2023-06-21T19:00:06.087Z,82.65
2023-06-21T19:02:34.124Z,82.57
2023-06-21T19:05:02.267Z,82.51
2023-06-21T19:07:30.852Z,82.41
2023-06-21T19:09:58.732Z,82.30
2023-06-21T19:12:26.585Z,82.25
2023-06-21T19:14:54.556Z,82.31
2023-06-21T19:17:23.717Z,82.38
2023-06-21T19:19:52.565Z,82.24
2023-06-21T19:22:31.916Z,81.95
2023-06-21T19:25:01.253Z,81.99
2023-06-21T19:27:29.501Z,82.04
2023-06-21T19:29:57.693Z,82.09
2023-06-21T19:32:25.609Z,82.20
2023-06-21T19:34:54.090Z,82.19
2023-06-21T19:37:22.230Z,82.27
2023-06-21T19:39:51.226Z,82.21
2023-06-21T19:42:19.205Z,82.17
2023-06-21T19:44:47.111Z,81.55
2023-06-21T19:47:15.342Z,81.10
2023-06-21T19:49:44.797Z,80.77
2023-06-21T19:52:14.181Z,80.24
2023-06-21T19:54:42.278Z,80.41
2023-06-21T19:57:10.141Z,80.65
2023-06-21T19:59:38.113Z,80.46
2023-06-21T20:02:06.581Z,80.08
2023-06-21T20:04:35.088Z,80.02
2023-06-21T20:07:03.027Z,80.19
2023-06-21T20:09:31.444Z,80.33
2023-06-21T20:11:59.254Z,80.75
2023-06-21T20:14:27.112Z,80.49
2023-06-21T20:16:55.073Z,80.28
2023-06-21T20:19:22.968Z,80.30
2023-06-21T20:21:50.921Z,80.46
2023-06-21T20:24:18.723Z,80.53
2023-06-21T20:26:47.231Z,80.54
2023-06-21T20:29:15.212Z,80.55
2023-06-21T20:31:43.064Z,80.35
2023-06-21T20:34:13.163Z,80.33
2023-06-21T20:36:47.302Z,80.40
2023-06-21T20:39:16.916Z,80.46
2023-06-21T20:41:46.986Z,80.61
2023-06-21T20:46:58.084Z,80.80
2023-06-21T20:49:28.605Z,80.88
2023-06-21T20:51:56.709Z,80.98
2023-06-21T20:54:24.851Z,81.29
2023-06-21T20:56:52.872Z,81.46
2023-06-21T20:59:21.158Z,81.59
2023-06-21T21:01:52.201Z,81.59
2023-06-21T21:04:21.369Z,81.55
2023-06-21T21:06:49.343Z,81.83
2023-06-21T21:09:17.865Z,82.01
2023-06-21T21:11:48.285Z,82.19
2023-06-21T21:14:16.933Z,82.23
2023-06-21T21:16:45.390Z,81.94
2023-06-21T21:19:13.368Z,81.63
2023-06-21T21:21:41.196Z,81.55
2023-06-21T21:24:08.955Z,81.42
2023-06-21T21:26:38.103Z,81.15
2023-06-21T21:29:06.098Z,80.78
2023-06-21T21:31:34.002Z,80.83
2023-06-21T21:34:02.084Z,80.81
2023-06-21T21:36:30.163Z,80.79
2023-06-21T21:38:59.301Z,80.75
2023-06-21T21:41:28.699Z,80.59
2023-06-21T21:43:56.951Z,80.69
2023-06-21T21:46:24.983Z,80.37
2023-06-21T21:48:52.833Z,80.29
2023-06-21T21:51:20.945Z,80.49
2023-06-21T21:53:48.777Z,80.83
2023-06-21T21:56:16.660Z,80.88
2023-06-21T21:58:45.545Z,81.08
2023-06-21T22:01:13.394Z,81.20
2023-06-21T22:03:41.391Z,81.51
2023-06-21T22:06:09.388Z,81.86
2023-06-21T22:08:37.561Z,82.10
2023-06-21T22:11:06.562Z,82.16
2023-06-21T22:13:38.892Z,82.33
2023-06-21T22:16:07.598Z,82.46
2023-06-21T22:18:36.020Z,82.53
2023-06-21T22:21:06.708Z,82.67
2023-06-21T22:23:35.342Z,82.81
2023-06-21T22:26:05.654Z,82.93
2023-06-21T22:28:35.446Z,82.98
2023-06-21T22:31:06.286Z,83.06
2023-06-21T22:33:37.244Z,83.01
2023-06-21T22:36:08.352Z,82.95
2023-06-21T22:38:36.722Z,83.03
2023-06-21T22:41:04.663Z,83.10
2023-06-21T22:43:32.958Z,83.03
2023-06-21T22:46:00.845Z,82.89
2023-06-21T22:48:32.095Z,82.65
2023-06-21T22:51:00.864Z,82.65
2023-06-21T22:53:28.612Z,82.81
2023-06-21T22:55:56.446Z,82.88
2023-06-21T22:58:24.270Z,83.03
2023-06-21T23:00:56.664Z,83.19
2023-06-21T23:03:27.332Z,83.50
2023-06-21T23:05:58.254Z,83.45
2023-06-21T23:08:26.064Z,83.61
2023-06-21T23:10:53.963Z,83.52
2023-06-21T23:13:23.091Z,83.69
2023-06-21T23:15:50.825Z,83.69
2023-06-21T23:18:18.581Z,83.61
2023-06-21T23:20:48.451Z,83.46
2023-06-21T23:23:16.698Z,83.47
2023-06-21T23:25:48.160Z,83.63
2023-06-21T23:28:20.491Z,83.73
2023-06-21T23:30:48.687Z,83.88
2023-06-21T23:33:16.453Z,83.96
2023-06-21T23:35:47.236Z,84.15
2023-06-21T23:38:15.182Z,84.30
2023-06-21T23:40:42.965Z,84.39
2023-06-21T23:43:14.102Z,84.49
2023-06-21T23:45:42.152Z,84.65
2023-06-21T23:48:10.993Z,84.82
2023-06-21T23:50:38.731Z,84.91
2023-06-21T23:53:07.992Z,84.97
2023-06-21T23:55:40.370Z,84.99
2023-06-21T23:58:08.307Z,85.10
